createdAt,value
2017-08-31T00:00:36.175Z,75.00
2017-08-31T00:03:02.217Z,69.87
2017-08-31T00:05:28.237Z,64.63
2017-08-31T00:07:54.437Z,73.50
2017-08-31T00:10:20.441Z,64.83
2017-08-31T00:12:46.469Z,70.40
2017-08-31T00:15:12.457Z,72.33
2017-08-31T00:17:38.481Z,72.30
2017-08-31T00:20:04.473Z,87.50
2017-08-31T00:22:30.514Z,90.60
2017-08-31T00:24:56.529Z,98.53
2017-08-31T00:27:22.549Z,96.23
2017-08-31T00:29:48.585Z,105.87
2017-08-31T00:32:14.610Z,108.73
2017-08-31T00:34:40.648Z,113.77
2017-08-31T00:37:06.691Z,99.10
2017-08-31T00:39:32.691Z,107.47
2017-08-31T00:41:58.741Z,120.60
2017-08-31T00:44:24.754Z,131.50
2017-08-31T00:46:50.793Z,141.47
2017-08-31T00:49:16.773Z,143.53
2017-08-31T00:51:42.800Z,148.63
2017-08-31T00:54:08.809Z,144.07
2017-08-31T00:56:34.839Z,156.77
2017-08-31T00:59:00.869Z,152.67
2017-08-31T01:01:26.877Z,146.23
2017-08-31T01:03:52.901Z,155.90
2017-08-31T01:06:18.938Z,171.50
2017-08-31T01:08:44.937Z,144.13
2017-08-31T01:11:10.965Z,155.80
2017-08-31T01:13:37.053Z,164.27
2017-08-31T01:16:03.093Z,178.87
2017-08-31T01:18:29.113Z,183.10
2017-08-31T01:20:55.105Z,197.97
2017-08-31T01:23:21.153Z,210.80
2017-08-31T01:25:47.164Z,194.67
2017-08-31T01:28:13.181Z,203.37
2017-08-31T01:30:39.198Z,189.93
2017-08-31T01:33:05.219Z,225.20
2017-08-31T01:35:31.257Z,213.47
2017-08-31T01:37:57.254Z,229.00
2017-08-31T01:40:23.265Z,206.03
2017-08-31T01:42:49.288Z,200.57
2017-08-31T01:45:15.314Z,221.57
2017-08-31T01:47:45.355Z,217.90
2017-08-31T01:50:11.377Z,220.90
2017-08-31T01:52:37.379Z,217.77
2017-08-31T01:55:03.401Z,232.20
2017-08-31T01:57:29.405Z,239.40
2017-08-31T01:59:55.425Z,243.70
2017-08-31T02:02:21.417Z,228.70
2017-08-31T02:04:47.457Z,241.17
2017-08-31T02:07:13.465Z,197.13
2017-08-31T02:09:39.477Z,161.07
2017-08-31T02:12:05.501Z,190.30
2017-08-31T02:14:31.525Z,176.80
2017-08-31T02:16:57.592Z,179.53
2017-08-31T02:19:23.603Z,184.77
2017-08-31T02:21:49.612Z,189.73
2017-08-31T02:24:15.668Z,193.57
2017-08-31T02:26:41.689Z,185.67
2017-08-31T02:29:07.714Z,198.47
2017-08-31T02:31:33.746Z,188.57
2017-08-31T02:33:59.783Z,190.43
2017-08-31T02:36:25.810Z,205.57
2017-08-31T02:38:51.885Z,211.53
2017-08-31T02:41:17.918Z,218.47
2017-08-31T02:43:43.957Z,234.10
2017-08-31T02:46:10.066Z,222.57
2017-08-31T02:48:36.089Z,218.90
2017-08-31T02:51:02.102Z,200.83
2017-08-31T02:53:28.121Z,209.23
2017-08-31T02:55:54.134Z,197.97
2017-08-31T02:58:20.142Z,219.70
2017-08-31T03:00:46.129Z,222.20
2017-08-31T03:03:12.125Z,213.10
2017-08-31T03:05:38.111Z,194.30
2017-08-31T03:08:04.136Z,214.77
2017-08-31T03:10:30.125Z,193.67
2017-08-31T03:12:56.145Z,221.10
2017-08-31T03:15:22.129Z,199.50
2017-08-31T03:17:48.124Z,196.23
2017-08-31T03:20:14.121Z,185.00
2017-08-31T03:22:40.121Z,201.17
2017-08-31T03:25:06.124Z,187.83
2017-08-31T03:27:32.128Z,179.03
2017-08-31T03:29:58.113Z,183.10
2017-08-31T03:32:24.113Z,183.40
2017-08-31T03:34:50.105Z,170.47
2017-08-31T03:37:16.132Z,165.70
2017-08-31T03:39:42.146Z,189.10
2017-08-31T03:42:08.129Z,165.33
2017-08-31T03:44:34.121Z,148.97
2017-08-31T03:47:00.116Z,150.90
2017-08-31T03:49:26.260Z,148.97
2017-08-31T03:51:52.257Z,152.73
2017-08-31T03:54:18.265Z,154.33
2017-08-31T03:56:44.257Z,155.83
2017-08-31T03:59:10.253Z,144.27
2017-08-31T04:01:36.317Z,161.67
2017-08-31T04:04:02.333Z,160.47
2017-08-31T04:06:28.353Z,135.57
2017-08-31T04:08:54.361Z,138.90
2017-08-31T04:11:20.349Z,142.83
2017-08-31T04:13:46.349Z,135.27
2017-08-31T04:16:12.360Z,142.00
2017-08-31T04:18:38.370Z,138.80
2017-08-31T04:21:04.371Z,140.13
2017-08-31T04:23:30.380Z,139.73
2017-08-31T04:25:56.386Z,133.57
2017-08-31T04:28:22.389Z,106.17
2017-08-31T04:30:48.406Z,128.80
2017-08-31T04:33:14.410Z,106.57
2017-08-31T04:35:40.448Z,124.80
2017-08-31T04:38:06.479Z,112.50
2017-08-31T04:40:32.495Z,86.47
2017-08-31T04:42:58.490Z,76.00
2017-08-31T04:45:24.512Z,95.73
2017-08-31T04:47:50.528Z,87.87
2017-08-31T04:50:16.650Z,80.63
2017-08-31T04:52:42.921Z,84.40
2017-08-31T04:55:08.933Z,92.87
2017-08-31T04:57:34.988Z,99.37
2017-08-31T05:00:01.024Z,79.63
2017-08-31T05:02:27.046Z,86.57
2017-08-31T05:04:53.041Z,85.33
2017-08-31T05:07:19.049Z,86.27
2017-08-31T05:09:45.037Z,91.10
2017-08-31T05:12:11.050Z,81.67
2017-08-31T05:14:37.102Z,75.57
2017-08-31T05:17:03.137Z,66.27
2017-08-31T05:19:29.153Z,59.30
2017-08-31T05:21:55.160Z,67.87
2017-08-31T05:24:22.170Z,64.70
2017-08-31T05:26:48.225Z,73.13
2017-08-31T05:29:14.237Z,65.30
2017-08-31T05:31:40.238Z,67.73
2017-08-31T05:34:06.278Z,59.77
2017-08-31T05:36:32.301Z,54.33
2017-08-31T05:38:58.309Z,56.17
2017-08-31T05:41:24.325Z,62.97
2017-08-31T05:43:50.353Z,48.97
2017-08-31T05:46:16.360Z,49.00
2017-08-31T05:48:42.377Z,45.33
2017-08-31T05:51:08.377Z,48.43
2017-08-31T05:53:34.390Z,36.90
2017-08-31T05:56:00.405Z,42.03
2017-08-31T05:58:26.425Z,43.50
2017-08-31T06:00:52.444Z,45.83
2017-08-31T06:03:18.453Z,39.20
2017-08-31T06:05:44.454Z,40.40
2017-08-31T06:08:10.452Z,41.60
2017-08-31T06:10:36.520Z,34.93
2017-08-31T06:13:02.565Z,41.00
2017-08-31T06:15:28.594Z,33.83
2017-08-31T06:17:54.593Z,35.90
2017-08-31T06:20:20.613Z,36.67
2017-08-31T06:22:46.628Z,37.90
2017-08-31T06:25:12.634Z,31.63
2017-08-31T06:27:38.664Z,27.13
2017-08-31T06:30:04.677Z,23.57
2017-08-31T06:32:30.669Z,24.80
2017-08-31T06:34:56.699Z,23.23
2017-08-31T06:37:22.695Z,20.83
2017-08-31T06:39:48.720Z,20.47
2017-08-31T06:42:14.736Z,14.77
2017-08-31T06:44:40.741Z,15.93
2017-08-31T06:47:06.770Z,19.53
2017-08-31T06:49:32.820Z,20.30
2017-08-31T06:51:58.811Z,16.80
2017-08-31T06:54:24.801Z,26.60
2017-08-31T06:56:50.821Z,23.00
2017-08-31T06:59:16.809Z,20.70
2017-08-31T07:01:42.820Z,22.60
2017-08-31T07:04:08.813Z,20.53
2017-08-31T07:06:34.833Z,25.67
2017-08-31T07:09:00.837Z,22.33
2017-08-31T07:11:26.856Z,29.33
2017-08-31T07:13:52.862Z,22.80
2017-08-31T07:16:18.872Z,23.73
2017-08-31T07:18:44.881Z,23.43
2017-08-31T07:21:11.041Z,24.03
2017-08-31T07:23:37.077Z,18.83
2017-08-31T07:26:03.144Z,14.60
2017-08-31T07:28:29.154Z,14.47
2017-08-31T07:30:55.141Z,12.13
2017-08-31T07:33:21.132Z,12.37
2017-08-31T07:35:47.128Z,14.80
2017-08-31T07:38:13.145Z,14.20
2017-08-31T07:40:39.184Z,15.13
2017-08-31T07:43:05.205Z,21.50
2017-08-31T07:45:31.231Z,16.47
2017-08-31T07:47:57.268Z,17.03
2017-08-31T07:50:23.286Z,18.30
2017-08-31T07:52:49.322Z,18.17
2017-08-31T07:55:15.325Z,19.33
2017-08-31T07:57:41.315Z,19.17
2017-08-31T08:00:07.309Z,17.53
2017-08-31T08:02:33.325Z,10.70
2017-08-31T08:04:59.352Z,12.33
2017-08-31T08:07:25.367Z,14.43
2017-08-31T08:09:51.353Z,10.23
2017-08-31T08:12:17.359Z,10.70
2017-08-31T08:14:43.361Z,12.63
2017-08-31T08:17:09.369Z,8.40
2017-08-31T08:19:35.381Z,7.20
2017-08-31T08:22:01.397Z,10.07
2017-08-31T08:24:27.412Z,5.90
2017-08-31T08:26:53.436Z,8.17
2017-08-31T08:29:19.477Z,3.70
2017-08-31T08:31:45.477Z,10.87
2017-08-31T08:34:11.509Z,6.47
2017-08-31T08:36:37.556Z,4.47
2017-08-31T08:39:03.602Z,7.80
2017-08-31T08:41:29.625Z,3.70
2017-08-31T08:43:55.637Z,6.30
2017-08-31T08:46:21.660Z,4.53
2017-08-31T08:48:47.677Z,7.63
2017-08-31T08:51:13.669Z,4.27
2017-08-31T08:53:39.669Z,3.60
2017-08-31T08:56:05.662Z,3.30
2017-08-31T08:58:31.674Z,5.37
2017-08-31T09:00:57.673Z,7.83
2017-08-31T09:03:23.709Z,3.03
2017-08-31T09:05:49.808Z,8.73
2017-08-31T09:08:15.838Z,6.67
2017-08-31T09:10:41.900Z,4.10
2017-08-31T09:13:08.097Z,8.60
2017-08-31T09:15:34.192Z,6.93
2017-08-31T09:18:00.201Z,4.90
2017-08-31T09:20:26.226Z,7.40
2017-08-31T09:22:52.233Z,11.30
2017-08-31T09:25:18.246Z,7.60
2017-08-31T09:27:44.261Z,6.70
2017-08-31T09:30:10.275Z,4.17
2017-08-31T09:32:36.269Z,3.93
2017-08-31T09:35:02.427Z,5.87
2017-08-31T09:37:28.429Z,5.07
2017-08-31T09:39:54.419Z,7.67
2017-08-31T09:42:20.414Z,4.23
2017-08-31T09:44:46.417Z,7.53
2017-08-31T09:47:12.433Z,7.97
2017-08-31T09:49:39.204Z,6.00
2017-08-31T09:52:05.205Z,7.93
2017-08-31T09:54:31.223Z,7.07
2017-08-31T09:56:57.229Z,5.10
2017-08-31T09:59:23.222Z,5.90
2017-08-31T10:01:49.222Z,3.83
2017-08-31T10:04:15.209Z,3.40
2017-08-31T10:06:41.217Z,4.90
2017-08-31T10:09:07.202Z,8.40
2017-08-31T10:11:33.248Z,4.63
2017-08-31T10:13:59.280Z,8.13
2017-08-31T10:16:25.311Z,2.80
2017-08-31T10:18:51.381Z,3.47
2017-08-31T10:21:17.404Z,5.27
2017-08-31T10:23:43.418Z,4.23
2017-08-31T10:26:09.453Z,3.73
2017-08-31T10:28:35.508Z,6.37
2017-08-31T10:31:01.521Z,5.57
2017-08-31T10:33:27.525Z,5.23
2017-08-31T10:35:53.517Z,3.53
2017-08-31T10:38:20.261Z,5.27
2017-08-31T10:40:46.253Z,9.90
2017-08-31T10:43:12.289Z,8.57
2017-08-31T10:45:38.284Z,5.73
2017-08-31T10:48:04.308Z,13.40
2017-08-31T10:50:30.309Z,7.40
2017-08-31T10:52:56.361Z,6.50
2017-08-31T10:55:22.365Z,7.00
2017-08-31T10:57:48.362Z,10.30
2017-08-31T11:00:14.361Z,6.03
2017-08-31T11:02:40.354Z,4.70
2017-08-31T11:05:06.361Z,8.20
2017-08-31T11:07:32.365Z,11.90
2017-08-31T11:09:58.402Z,4.53
2017-08-31T11:12:24.408Z,7.97
2017-08-31T11:14:50.418Z,13.57
2017-08-31T11:17:16.417Z,13.53
2017-08-31T11:19:42.441Z,8.23
2017-08-31T11:22:08.456Z,6.13
2017-08-31T11:24:34.474Z,7.03
2017-08-31T11:27:00.473Z,11.13
2017-08-31T11:29:26.582Z,15.90
2017-08-31T11:31:52.540Z,4.90
2017-08-31T11:34:18.659Z,6.73
2017-08-31T11:36:44.564Z,7.40
2017-08-31T11:39:10.545Z,10.73
2017-08-31T11:41:37.564Z,6.80
2017-08-31T11:44:03.577Z,7.20
2017-08-31T11:46:29.588Z,10.13
2017-08-31T11:48:55.581Z,11.43
2017-08-31T11:51:21.573Z,8.43
2017-08-31T11:53:47.560Z,10.77
2017-08-31T11:56:13.545Z,11.13
2017-08-31T11:58:39.609Z,9.20
2017-08-31T12:01:05.633Z,7.70
2017-08-31T12:03:31.650Z,6.23
2017-08-31T12:05:57.658Z,10.70
2017-08-31T12:08:23.654Z,7.33
2017-08-31T12:10:51.406Z,7.53
2017-08-31T12:13:17.475Z,9.30
2017-08-31T12:15:43.485Z,9.00
2017-08-31T12:18:09.532Z,9.20
2017-08-31T12:20:35.529Z,7.70
2017-08-31T12:23:01.552Z,8.60
2017-08-31T12:25:28.631Z,6.40
2017-08-31T12:27:54.898Z,11.80
2017-08-31T12:30:20.913Z,6.70
2017-08-31T12:32:46.933Z,8.30
2017-08-31T12:35:12.958Z,19.20
2017-08-31T12:37:38.981Z,11.40
2017-08-31T12:40:04.977Z,8.70
2017-08-31T12:42:30.993Z,10.00
2017-08-31T12:44:57.013Z,12.50
2017-08-31T12:47:23.029Z,10.43
2017-08-31T12:49:49.042Z,10.07
2017-08-31T12:52:15.025Z,13.80
2017-08-31T12:54:41.017Z,9.10
2017-08-31T12:57:06.994Z,8.60
2017-08-31T12:59:33.030Z,10.87
2017-08-31T13:01:59.021Z,13.43
2017-08-31T13:04:25.009Z,9.40
2017-08-31T13:06:50.998Z,15.10
2017-08-31T13:09:17.019Z,9.67
2017-08-31T13:11:43.019Z,8.47
2017-08-31T13:14:09.043Z,15.83
2017-08-31T13:16:35.050Z,10.53
2017-08-31T13:19:01.073Z,9.10
2017-08-31T13:21:27.090Z,12.40
2017-08-31T13:23:53.085Z,11.20
2017-08-31T13:26:19.078Z,9.57
2017-08-31T13:28:45.062Z,10.60
2017-08-31T13:31:11.085Z,9.33
2017-08-31T13:33:37.120Z,15.53
2017-08-31T13:36:03.162Z,7.47
2017-08-31T13:38:29.164Z,8.03
2017-08-31T13:40:55.173Z,7.23
2017-08-31T13:43:21.167Z,10.50
2017-08-31T13:45:47.181Z,7.90
2017-08-31T13:48:13.168Z,7.53
2017-08-31T13:50:39.212Z,9.67
2017-08-31T13:53:05.264Z,8.23
2017-08-31T13:55:31.282Z,8.20
2017-08-31T13:57:57.297Z,12.50
2017-08-31T14:00:23.325Z,7.53
2017-08-31T14:02:49.340Z,7.83
2017-08-31T14:05:15.325Z,10.43
2017-08-31T14:07:41.321Z,7.77
2017-08-31T14:10:07.332Z,8.17
2017-08-31T14:12:33.364Z,7.70
2017-08-31T14:14:59.363Z,11.97
2017-08-31T14:17:25.361Z,8.87
2017-08-31T14:19:51.362Z,12.27
2017-08-31T14:22:17.453Z,9.77
2017-08-31T14:24:43.462Z,11.20
2017-08-31T14:27:09.460Z,6.23
2017-08-31T14:29:36.284Z,7.37
2017-08-31T14:32:02.329Z,16.57
2017-08-31T14:34:28.323Z,15.07
2017-08-31T14:36:54.317Z,14.73
2017-08-31T14:39:20.376Z,12.97
2017-08-31T14:41:46.382Z,9.30
2017-08-31T14:44:12.405Z,8.43
2017-08-31T14:46:38.425Z,10.83
2017-08-31T14:49:04.433Z,8.27
2017-08-31T14:51:30.433Z,6.73
2017-08-31T14:53:56.456Z,6.00
2017-08-31T14:56:22.457Z,5.83
2017-08-31T14:58:48.481Z,7.20
2017-08-31T15:01:14.541Z,6.03
2017-08-31T15:03:40.576Z,5.00
2017-08-31T15:06:06.632Z,11.17
2017-08-31T15:08:32.688Z,9.70
2017-08-31T15:10:58.693Z,7.03
2017-08-31T15:13:24.709Z,5.90
2017-08-31T15:15:50.715Z,6.90
2017-08-31T15:18:16.739Z,5.37
2017-08-31T15:20:42.762Z,4.90
2017-08-31T15:23:08.765Z,4.60
2017-08-31T15:25:34.797Z,4.53
2017-08-31T15:28:00.807Z,4.77
2017-08-31T15:30:26.841Z,5.03
2017-08-31T15:32:52.909Z,6.47
2017-08-31T15:35:19.376Z,7.20
2017-08-31T15:37:45.417Z,5.70
2017-08-31T15:40:11.434Z,3.50
2017-08-31T15:42:37.441Z,5.00
2017-08-31T15:45:03.466Z,3.43
2017-08-31T15:47:29.489Z,5.67
2017-08-31T15:49:55.485Z,2.13
2017-08-31T15:52:21.524Z,5.33
2017-08-31T15:54:47.529Z,2.80
2017-08-31T15:57:13.542Z,1.83
2017-08-31T15:59:39.550Z,1.80
2017-08-31T16:02:05.593Z,1.30
2017-08-31T16:04:31.597Z,2.03
2017-08-31T16:06:57.601Z,1.33
2017-08-31T16:09:23.621Z,0.80
2017-08-31T16:11:49.625Z,1.50
2017-08-31T16:14:15.648Z,2.47
2017-08-31T16:16:41.698Z,2.50
2017-08-31T16:19:07.717Z,3.27
2017-08-31T16:21:33.733Z,1.60
2017-08-31T16:23:59.748Z,5.80
2017-08-31T16:26:25.738Z,1.03
2017-08-31T16:28:51.756Z,3.73
2017-08-31T16:31:17.770Z,1.43
2017-08-31T16:33:43.817Z,1.67
2017-08-31T16:36:09.861Z,4.00
2017-08-31T16:38:35.890Z,1.40
2017-08-31T16:41:02.038Z,1.77
2017-08-31T16:43:28.100Z,6.60
2017-08-31T16:45:54.134Z,2.37
2017-08-31T16:48:20.209Z,3.60
2017-08-31T16:50:46.256Z,2.43
2017-08-31T16:53:12.276Z,3.23
2017-08-31T16:55:38.330Z,3.57
2017-08-31T16:58:04.382Z,3.60
2017-08-31T17:00:30.417Z,6.30
2017-08-31T17:02:56.464Z,4.63
2017-08-31T17:05:22.498Z,3.13
2017-08-31T17:07:48.509Z,2.63
2017-08-31T17:10:14.522Z,6.20
2017-08-31T17:12:40.565Z,5.50
2017-08-31T17:15:06.589Z,3.00
2017-08-31T17:17:32.617Z,7.80
2017-08-31T17:19:58.645Z,4.33
2017-08-31T17:22:24.672Z,6.60
2017-08-31T17:24:50.709Z,2.43
2017-08-31T17:27:16.725Z,3.47
2017-08-31T17:29:42.751Z,3.57
2017-08-31T17:32:08.781Z,4.80
2017-08-31T17:34:34.828Z,3.23
2017-08-31T17:37:00.873Z,3.53
2017-08-31T17:39:26.908Z,6.00
2017-08-31T17:41:53.015Z,9.17
2017-08-31T17:44:19.039Z,4.40
2017-08-31T17:46:45.072Z,6.33
2017-08-31T17:49:11.090Z,5.23
2017-08-31T17:51:37.120Z,4.80
2017-08-31T17:54:03.156Z,2.60
2017-08-31T17:56:29.185Z,7.80
2017-08-31T17:58:55.228Z,4.90
2017-08-31T18:01:21.285Z,2.40
2017-08-31T18:03:47.336Z,10.17
2017-08-31T18:06:13.424Z,4.87
2017-08-31T18:08:39.482Z,9.30
2017-08-31T18:11:05.521Z,3.37
2017-08-31T18:13:31.553Z,3.97
2017-08-31T18:15:57.573Z,7.20
2017-08-31T18:18:23.621Z,6.33
2017-08-31T18:20:49.634Z,3.37
2017-08-31T18:23:15.658Z,10.40
2017-08-31T18:25:41.666Z,8.30
2017-08-31T18:28:07.705Z,16.67
2017-08-31T18:30:33.744Z,5.10
2017-08-31T18:32:59.802Z,9.33
2017-08-31T18:35:25.860Z,4.70
2017-08-31T18:37:51.885Z,5.83
2017-08-31T18:40:17.932Z,9.27
2017-08-31T18:42:43.973Z,8.93
2017-08-31T18:45:10.009Z,6.00
2017-08-31T18:47:36.106Z,16.60
2017-08-31T18:50:02.133Z,7.93
2017-08-31T18:52:28.149Z,11.20
2017-08-31T18:54:54.174Z,6.10
2017-08-31T18:57:20.215Z,6.17
2017-08-31T18:59:46.265Z,12.33
2017-08-31T19:02:12.311Z,10.67
2017-08-31T19:04:38.358Z,7.13
2017-08-31T19:07:04.404Z,4.97
2017-08-31T19:09:30.417Z,6.53
2017-08-31T19:11:56.449Z,8.30
2017-08-31T19:14:22.488Z,10.83
2017-08-31T19:16:48.533Z,5.50
2017-08-31T19:19:14.557Z,7.70
2017-08-31T19:21:40.609Z,6.27
2017-08-31T19:24:06.769Z,8.40
2017-08-31T19:26:32.908Z,9.07
2017-08-31T19:28:59.097Z,5.17
2017-08-31T19:31:25.150Z,9.60
2017-08-31T19:33:51.320Z,6.40
2017-08-31T19:36:17.329Z,7.93
2017-08-31T19:38:43.362Z,10.50
2017-08-31T19:41:09.389Z,9.67
2017-08-31T19:43:35.441Z,6.70
2017-08-31T19:46:01.469Z,6.97
2017-08-31T19:48:27.509Z,7.00
2017-08-31T19:50:53.561Z,10.77
2017-08-31T19:53:19.671Z,10.20
2017-08-31T19:55:45.681Z,8.13
2017-08-31T19:58:11.793Z,7.93
2017-08-31T20:00:37.819Z,12.03
2017-08-31T20:03:03.854Z,12.43
2017-08-31T20:05:29.908Z,12.13
2017-08-31T20:07:55.935Z,6.73
2017-08-31T20:10:21.960Z,11.50
2017-08-31T20:12:47.985Z,11.30
2017-08-31T20:15:14.033Z,10.43
2017-08-31T20:17:40.060Z,15.10
2017-08-31T20:20:06.118Z,9.00
2017-08-31T20:22:32.149Z,5.30
2017-08-31T20:24:58.185Z,11.50
2017-08-31T20:27:24.206Z,13.70
2017-08-31T20:29:50.233Z,10.93
2017-08-31T20:32:16.269Z,17.20
2017-08-31T20:34:42.317Z,10.70
2017-08-31T20:37:08.374Z,10.30
2017-08-31T20:39:34.401Z,6.07
2017-08-31T20:42:00.433Z,10.40
2017-08-31T20:44:26.461Z,13.50
2017-08-31T20:46:52.501Z,5.90
2017-08-31T20:49:18.529Z,9.90
2017-08-31T20:51:44.578Z,13.23
2017-08-31T20:54:10.593Z,16.43
2017-08-31T20:56:36.667Z,12.20
2017-08-31T20:59:02.689Z,11.10
2017-08-31T21:01:28.705Z,11.57
2017-08-31T21:03:54.724Z,5.63
2017-08-31T21:06:20.741Z,11.50
2017-08-31T21:08:46.785Z,8.73
2017-08-31T21:11:12.804Z,9.43
2017-08-31T21:13:38.841Z,8.80
2017-08-31T21:16:04.868Z,14.83
2017-08-31T21:18:30.881Z,14.00
2017-08-31T21:20:56.901Z,9.60
2017-08-31T21:23:22.941Z,7.17
2017-08-31T21:25:48.948Z,9.53
2017-08-31T21:28:14.997Z,7.60
2017-08-31T21:30:41.010Z,9.03
2017-08-31T21:33:07.066Z,9.83
2017-08-31T21:35:33.125Z,9.30
2017-08-31T21:37:59.146Z,11.80
2017-08-31T21:40:25.902Z,15.70
2017-08-31T21:42:51.944Z,10.30
2017-08-31T21:45:17.973Z,9.03
2017-08-31T21:47:43.985Z,8.83
2017-08-31T21:50:10.011Z,12.23
2017-08-31T21:52:36.049Z,10.63
2017-08-31T21:55:02.074Z,6.30
2017-08-31T21:57:28.270Z,7.00
2017-08-31T21:59:54.292Z,13.87
2017-08-31T22:02:20.316Z,7.33
2017-08-31T22:04:46.350Z,8.07
2017-08-31T22:07:12.373Z,8.47
2017-08-31T22:09:38.438Z,10.40
2017-08-31T22:12:04.468Z,7.90
2017-08-31T22:14:30.532Z,15.30
2017-08-31T22:16:56.568Z,6.03
2017-08-31T22:19:22.603Z,16.20
2017-08-31T22:21:48.715Z,11.33
2017-08-31T22:24:14.738Z,11.20
2017-08-31T22:26:40.774Z,12.17
2017-08-31T22:29:06.787Z,11.53
2017-08-31T22:31:32.825Z,19.13
2017-08-31T22:33:58.849Z,7.97
2017-08-31T22:36:24.877Z,13.40
2017-08-31T22:38:50.899Z,10.30
2017-08-31T22:41:16.909Z,8.80
2017-08-31T22:43:43.031Z,9.00
2017-08-31T22:46:09.067Z,13.23
2017-08-31T22:48:35.088Z,7.67
2017-08-31T22:51:01.161Z,8.83
2017-08-31T22:53:27.181Z,11.30
2017-08-31T22:55:53.185Z,7.37
2017-08-31T22:58:19.194Z,9.83
2017-08-31T23:00:45.219Z,12.33
2017-08-31T23:03:11.281Z,10.50
2017-08-31T23:05:37.336Z,7.40
2017-08-31T23:08:03.382Z,8.00
2017-08-31T23:10:29.417Z,7.50
2017-08-31T23:12:55.478Z,7.00
2017-08-31T23:15:21.529Z,10.77
2017-08-31T23:17:47.562Z,9.50
2017-08-31T23:20:13.585Z,9.90
2017-08-31T23:22:39.622Z,7.10
2017-08-31T23:25:05.681Z,8.07
2017-08-31T23:27:31.717Z,9.37
2017-08-31T23:29:57.756Z,9.73
2017-08-31T23:32:23.781Z,12.90
2017-08-31T23:34:49.808Z,11.27
2017-08-31T23:37:15.809Z,10.47
2017-08-31T23:39:41.833Z,11.23
2017-08-31T23:42:07.872Z,12.63
2017-08-31T23:44:33.933Z,7.93
2017-08-31T23:46:59.985Z,12.60
2017-08-31T23:49:26.031Z,13.63
2017-08-31T23:51:52.085Z,7.47
2017-08-31T23:54:18.150Z,14.03
2017-08-31T23:56:44.193Z,11.20
2017-08-31T23:59:10.248Z,14.87
